Aérodrome :
LOGIN :

S'inscrire | Disclaimer

   EN    FR    IT 

 










Légende :    VFR   VFR Marginal   IFR   IFR Intensif   IFR Très Intensif
Visi : 
Plafond : 
>= 8 km
>= 3000ft
5 à 8 km
1000 à 3000 ft
1500m à 5 km
500 à 1000 ft
800 à 1500m
200 à 500 ft
< 800m
< 200 ft
Symboles :   Orages  Brouillard  Fortes neiges  Fortes précipitations  Vent > 20 kt
SIGMETs :   Divers  Orages  Givrage  Turbulence  Onde Orograph.  Cendres Volcan.






- Altitude de l'aérodrome : 268 ft
- Code IATA : BFS


EGAA - Belfast Aldergrove

DERNIER METAR :
  • 170220Z AUTO 31010KT 8000 OVC003 11/11 Q1005

METARs EXPIRÉS :
  • 170150Z AUTO 29009KT 7000 OVC004 11/10 Q1005
  • 170120Z AUTO 30009KT 9999 BKN007 OVC013 11/10 Q1005
  • 170050Z AUTO 30010KT 9999 BKN008 BKN020 BKN033 11/10 Q1005
  • 170020Z AUTO 30008KT 9999 SCT008 BKN023 11/10 Q1004
  • 162350Z AUTO 31011KT 9999 SCT009 SCT023 11/10 Q1004
  • 162320Z AUTO 31011KT 9999 BKN009 BKN013 BKN018 11/09 Q1004
  • 162250Z AUTO 31011KT 9999 OVC010 11/09 Q1004
  • 162220Z AUTO 30010KT 9999 BKN012 OVC024 11/09 Q1004
  • 162150Z AUTO 31010KT 280V340 9999 SCT014 BKN018 11/09 Q1004
  • 162120Z 30009KT 9999 FEW016 OVC021 12/09 Q1004

TAF TAF EGAA
Valide du 17 à 00h jusqu'au 18 à 00h UTC


162255Z 1700/1724 30010KT 9999 SCT012 BKN015
PROB40
TEMPO 1700/1710 5000 -RADZ BKN012
PROB30
TEMPO 1700/1709 BKN008
PROB30
TEMPO 1718/1724 BKN014



MET'MAP, la Météo Aéronautique d'un coup d'oeil ! - Copyright ORBIFLY Décembre 2007 - Disclaimer

ORBIFLY MET'MAP TEAM :

Programmation & Développement : Alexandra Zaïnal
Sur une idée originale de : Baudouin d'Aumeries
Soutien technique & logistique : Manuel Goepfert
Assistance : Marc-Olivier Méhu




SOURCES & CREDITS :

   NOAA